sensor_id;sensor_type;location;lat;lon;timestamp;temperature;humidity
13835;DHT22;6988;52.614;13.500;2022-09-03T00:01:26;12.80;99.90
13835;DHT22;6988;52.614;13.500;2022-09-03T00:06:31;13.00;99.90
13835;DHT22;6988;52.614;13.500;2022-09-03T00:11:30;12.90;99.90
13835;DHT22;6988;52.614;13.500;2022-09-03T00:16:36;12.90;99.90
13835;DHT22;6988;52.614;13.500;2022-09-03T00:21:40;12.80;99.90
13835;DHT22;6988;52.614;13.500;2022-09-03T00:26:36;12.70;99.90
13835;DHT22;6988;52.614;13.500;2022-09-03T00:31:34;12.60;99.90
13835;DHT22;6988;52.614;13.500;2022-09-03T00:36:34;12.60;99.90
13835;DHT22;6988;52.614;13.500;2022-09-03T00:41:36;12.60;99.90
13835;DHT22;6988;52.614;13.500;2022-09-03T00:46:37;12.50;99.90
13835;DHT22;6988;52.614;13.500;2022-09-03T00:51:42;12.40;99.90
13835;DHT22;6988;52.614;13.500;2022-09-03T00:56:47;12.30;99.90
13835;DHT22;6988;52.614;13.500;2022-09-03T01:01:49;12.30;99.90
13835;DHT22;6988;52.614;13.500;2022-09-03T01:06:57;12.20;99.90
13835;DHT22;6988;52.614;13.500;2022-09-03T01:12:00;12.10;99.90
13835;DHT22;6988;52.614;13.500;2022-09-03T01:17:09;12.10;99.90
13835;DHT22;6988;52.614;13.500;2022-09-03T01:22:27;12.00;99.90
13835;DHT22;6988;52.614;13.500;2022-09-03T01:27:47;12.10;99.90
13835;DHT22;6988;52.614;13.500;2022-09-03T01:33:06;12.10;99.90
13835;DHT22;6988;52.614;13.500;2022-09-03T01:38:16;11.90;99.90
13835;DHT22;6988;52.614;13.500;2022-09-03T01:43:28;11.90;99.90
13835;DHT22;6988;52.614;13.500;2022-09-03T01:48:37;11.90;99.90
13835;DHT22;6988;52.614;13.500;2022-09-03T01:53:45;11.80;99.90
13835;DHT22;6988;52.614;13.500;2022-09-03T01:58:58;11.80;99.90
13835;DHT22;6988;52.614;13.500;2022-09-03T02:03:56;11.90;99.90
13835;DHT22;6988;52.614;13.500;2022-09-03T02:08:49;11.80;99.90
13835;DHT22;6988;52.614;13.500;2022-09-03T02:13:43;11.80;99.90
13835;DHT22;6988;52.614;13.500;2022-09-03T02:18:41;11.80;99.90
13835;DHT22;6988;52.614;13.500;2022-09-03T02:23:38;11.60;99.90
13835;DHT22;6988;52.614;13.500;2022-09-03T02:28:31;11.60;99.90
13835;DHT22;6988;52.614;13.500;2022-09-03T02:33:24;11.60;99.90
13835;DHT22;6988;52.614;13.500;2022-09-03T02:38:21;11.60;99.90
13835;DHT22;6988;52.614;13.500;2022-09-03T02:43:19;11.50;99.90
13835;DHT22;6988;52.614;13.500;2022-09-03T02:48:18;11.50;99.90
13835;DHT22;6988;52.614;13.500;2022-09-03T02:53:13;11.50;99.90
13835;DHT22;6988;52.614;13.500;2022-09-03T02:58:07;11.50;99.90
13835;DHT22;6988;52.614;13.500;2022-09-03T03:02:58;11.50;99.90
13835;DHT22;6988;52.614;13.500;2022-09-03T03:07:50;11.40;99.90
13835;DHT22;6988;52.614;13.500;2022-09-03T03:12:42;11.30;99.90
13835;DHT22;6988;52.614;13.500;2022-09-03T03:17:35;11.20;99.90
13835;DHT22;6988;52.614;13.500;2022-09-03T03:22:27;11.20;99.90
13835;DHT22;6988;52.614;13.500;2022-09-03T03:27:18;11.20;99.90
13835;DHT22;6988;52.614;13.500;2022-09-03T03:32:10;11.30;99.90
13835;DHT22;6988;52.614;13.500;2022-09-03T03:37:03;11.10;99.90
13835;DHT22;6988;52.614;13.500;2022-09-03T03:41:55;11.00;99.90
13835;DHT22;6988;52.614;13.500;2022-09-03T03:46:47;11.00;99.90
13835;DHT22;6988;52.614;13.500;2022-09-03T03:51:38;11.00;99.90
13835;DHT22;6988;52.614;13.500;2022-09-03T03:56:33;11.20;99.90
13835;DHT22;6988;52.614;13.500;2022-09-03T04:01:26;11.40;99.90
13835;DHT22;6988;52.614;13.500;2022-09-03T04:06:19;11.50;99.90
13835;DHT22;6988;52.614;13.500;2022-09-03T04:11:13;11.60;99.90
13835;DHT22;6988;52.614;13.500;2022-09-03T04:16:09;11.70;99.90
13835;DHT22;6988;52.614;13.500;2022-09-03T04:21:05;11.80;99.90
13835;DHT22;6988;52.614;13.500;2022-09-03T04:25:58;11.80;99.90
13835;DHT22;6988;52.614;13.500;2022-09-03T04:30:50;11.80;99.90
13835;DHT22;6988;52.614;13.500;2022-09-03T04:35:44;12.00;99.90
13835;DHT22;6988;52.614;13.500;2022-09-03T04:40:36;12.00;99.90
13835;DHT22;6988;52.614;13.500;2022-09-03T04:45:28;12.10;99.90
13835;DHT22;6988;52.614;13.500;2022-09-03T04:50:19;12.20;99.90
13835;DHT22;6988;52.614;13.500;2022-09-03T04:55:23;12.40;99.90
13835;DHT22;6988;52.614;13.500;2022-09-03T05:00:16;12.40;99.90
13835;DHT22;6988;52.614;13.500;2022-09-03T05:05:09;12.40;99.90
13835;DHT22;6988;52.614;13.500;2022-09-03T05:10:00;12.50;99.90
13835;DHT22;6988;52.614;13.500;2022-09-03T05:14:54;12.60;99.90
13835;DHT22;6988;52.614;13.500;2022-09-03T05:19:45;12.70;99.90
13835;DHT22;6988;52.614;13.500;2022-09-03T05:24:37;12.80;99.90
13835;DHT22;6988;52.614;13.500;2022-09-03T05:29:29;12.80;99.90
13835;DHT22;6988;52.614;13.500;2022-09-03T05:34:22;12.90;99.90
13835;DHT22;6988;52.614;13.500;2022-09-03T05:39:14;12.90;99.90
13835;DHT22;6988;52.614;13.500;2022-09-03T05:44:05;13.00;99.90
13835;DHT22;6988;52.614;13.500;2022-09-03T05:48:57;13.20;99.90
13835;DHT22;6988;52.614;13.500;2022-09-03T05:53:51;13.40;99.90
13835;DHT22;6988;52.614;13.500;2022-09-03T05:58:46;13.50;99.90
13835;DHT22;6988;52.614;13.500;2022-09-03T06:03:40;13.70;99.90
13835;DHT22;6988;52.614;13.500;2022-09-03T06:08:34;13.70;99.90
13835;DHT22;6988;52.614;13.500;2022-09-03T06:13:29;13.90;99.90
13835;DHT22;6988;52.614;13.500;2022-09-03T06:18:22;14.00;99.90
13835;DHT22;6988;52.614;13.500;2022-09-03T06:23:14;14.20;99.90
13835;DHT22;6988;52.614;13.500;2022-09-03T06:28:06;14.60;99.90
13835;DHT22;6988;52.614;13.500;2022-09-03T06:32:59;14.80;99.90
13835;DHT22;6988;52.614;13.500;2022-09-03T06:37:51;14.70;99.90
13835;DHT22;6988;52.614;13.500;2022-09-03T06:42:43;14.60;99.90
13835;DHT22;6988;52.614;13.500;2022-09-03T06:47:35;14.50;99.90
13835;DHT22;6988;52.614;13.500;2022-09-03T06:52:28;14.80;99.90
13835;DHT22;6988;52.614;13.500;2022-09-03T06:57:20;14.80;99.90
13835;DHT22;6988;52.614;13.500;2022-09-03T07:02:11;14.80;99.90
13835;DHT22;6988;52.614;13.500;2022-09-03T07:07:03;15.00;99.90
13835;DHT22;6988;52.614;13.500;2022-09-03T07:11:56;15.10;99.90
13835;DHT22;6988;52.614;13.500;2022-09-03T07:16:49;15.20;99.90
13835;DHT22;6988;52.614;13.500;2022-09-03T07:21:41;15.50;99.90
13835;DHT22;6988;52.614;13.500;2022-09-03T07:26:36;15.70;99.90
13835;DHT22;6988;52.614;13.500;2022-09-03T07:31:33;15.90;99.90
13835;DHT22;6988;52.614;13.500;2022-09-03T07:36:27;15.90;99.90
13835;DHT22;6988;52.614;13.500;2022-09-03T07:41:20;16.00;99.90
13835;DHT22;6988;52.614;13.500;2022-09-03T07:46:13;16.10;99.90
13835;DHT22;6988;52.614;13.500;2022-09-03T07:51:09;16.30;99.90
13835;DHT22;6988;52.614;13.500;2022-09-03T07:56:03;16.40;99.90
13835;DHT22;6988;52.614;13.500;2022-09-03T08:00:56;16.60;99.90
13835;DHT22;6988;52.614;13.500;2022-09-03T08:05:48;16.90;99.90
13835;DHT22;6988;52.614;13.500;2022-09-03T08:10:41;17.00;99.90
13835;DHT22;6988;52.614;13.500;2022-09-03T08:15:33;17.00;99.90
13835;DHT22;6988;52.614;13.500;2022-09-03T08:20:26;17.10;99.90
13835;DHT22;6988;52.614;13.500;2022-09-03T08:25:18;17.20;99.90
13835;DHT22;6988;52.614;13.500;2022-09-03T08:30:11;17.30;99.90
13835;DHT22;6988;52.614;13.500;2022-09-03T08:35:04;17.60;99.90
13835;DHT22;6988;52.614;13.500;2022-09-03T08:39:58;17.90;99.90
13835;DHT22;6988;52.614;13.500;2022-09-03T08:44:52;18.60;99.90
13835;DHT22;6988;52.614;13.500;2022-09-03T08:49:53;19.20;99.90
13835;DHT22;6988;52.614;13.500;2022-09-03T08:54:48;19.90;99.90
13835;DHT22;6988;52.614;13.500;2022-09-03T08:59:41;20.50;99.90
13835;DHT22;6988;52.614;13.500;2022-09-03T09:04:42;21.30;99.90
13835;DHT22;6988;52.614;13.500;2022-09-03T09:09:51;21.70;99.90
13835;DHT22;6988;52.614;13.500;2022-09-03T09:15:03;21.70;99.90
13835;DHT22;6988;52.614;13.500;2022-09-03T09:20:05;22.10;99.90
13835;DHT22;6988;52.614;13.500;2022-09-03T09:25:09;22.30;99.90
13835;DHT22;6988;52.614;13.500;2022-09-03T09:30:18;22.10;99.90
13835;DHT22;6988;52.614;13.500;2022-09-03T09:35:11;22.30;99.90
13835;DHT22;6988;52.614;13.500;2022-09-03T09:40:06;22.40;99.90
13835;DHT22;6988;52.614;13.500;2022-09-03T09:45:08;22.40;99.90
13835;DHT22;6988;52.614;13.500;2022-09-03T09:50:02;22.30;99.90
13835;DHT22;6988;52.614;13.500;2022-09-03T09:55:10;22.80;99.90
13835;DHT22;6988;52.614;13.500;2022-09-03T10:00:09;22.90;99.90
13835;DHT22;6988;52.614;13.500;2022-09-03T10:05:12;23.70;99.90
13835;DHT22;6988;52.614;13.500;2022-09-03T10:10:15;23.80;96.30
13835;DHT22;6988;52.614;13.500;2022-09-03T10:15:20;23.50;96.30
13835;DHT22;6988;52.614;13.500;2022-09-03T10:20:20;23.70;96.00
13835;DHT22;6988;52.614;13.500;2022-09-03T10:25:20;23.80;95.40
13835;DHT22;6988;52.614;13.500;2022-09-03T10:30:13;24.40;95.10
13835;DHT22;6988;52.614;13.500;2022-09-03T10:35:12;24.70;92.40
13835;DHT22;6988;52.614;13.500;2022-09-03T10:40:21;24.40;92.40
13835;DHT22;6988;52.614;13.500;2022-09-03T10:45:30;24.10;91.20
13835;DHT22;6988;52.614;13.500;2022-09-03T10:50:33;23.90;92.80
13835;DHT22;6988;52.614;13.500;2022-09-03T10:55:42;23.90;92.90
13835;DHT22;6988;52.614;13.500;2022-09-03T11:00:48;24.10;91.30
13835;DHT22;6988;52.614;13.500;2022-09-03T11:05:54;24.00;91.70
13835;DHT22;6988;52.614;13.500;2022-09-03T11:10:55;24.20;91.30
13835;DHT22;6988;52.614;13.500;2022-09-03T11:15:58;23.10;92.70
13835;DHT22;6988;52.614;13.500;2022-09-03T11:20:56;22.80;94.80
13835;DHT22;6988;52.614;13.500;2022-09-03T11:25:57;23.30;94.70
13835;DHT22;6988;52.614;13.500;2022-09-03T11:31:03;23.20;93.40
13835;DHT22;6988;52.614;13.500;2022-09-03T11:36:05;22.70;94.10
13835;DHT22;6988;52.614;13.500;2022-09-03T11:41:00;22.70;94.90
13835;DHT22;6988;52.614;13.500;2022-09-03T11:46:04;22.50;94.70
13835;DHT22;6988;52.614;13.500;2022-09-03T11:51:01;22.40;96.10
13835;DHT22;6988;52.614;13.500;2022-09-03T11:55:55;22.30;95.10
13835;DHT22;6988;52.614;13.500;2022-09-03T12:00:52;22.00;96.20
13835;DHT22;6988;52.614;13.500;2022-09-03T12:05:52;21.90;98.10
13835;DHT22;6988;52.614;13.500;2022-09-03T12:11:05;22.00;97.10
13835;DHT22;6988;52.614;13.500;2022-09-03T12:16:24;21.90;95.30
13835;DHT22;6988;52.614;13.500;2022-09-03T12:21:28;22.10;96.40
13835;DHT22;6988;52.614;13.500;2022-09-03T12:26:23;22.50;94.90
13835;DHT22;6988;52.614;13.500;2022-09-03T12:31:18;22.70;96.10
13835;DHT22;6988;52.614;13.500;2022-09-03T12:36:13;23.30;94.50
13835;DHT22;6988;52.614;13.500;2022-09-03T12:41:24;23.50;93.30
13835;DHT22;6988;52.614;13.500;2022-09-03T12:46:17;23.30;93.30
13835;DHT22;6988;52.614;13.500;2022-09-03T12:51:10;22.90;92.70
13835;DHT22;6988;52.614;13.500;2022-09-03T12:56:02;22.70;92.20
13835;DHT22;6988;52.614;13.500;2022-09-03T13:00:59;22.60;92.20
13835;DHT22;6988;52.614;13.500;2022-09-03T13:06:00;22.90;92.60
13835;DHT22;6988;52.614;13.500;2022-09-03T13:10:58;22.90;92.20
13835;DHT22;6988;52.614;13.500;2022-09-03T13:16:04;23.00;93.00
13835;DHT22;6988;52.614;13.500;2022-09-03T13:21:12;22.80;92.10
13835;DHT22;6988;52.614;13.500;2022-09-03T13:26:20;22.60;92.50
13835;DHT22;6988;52.614;13.500;2022-09-03T13:31:27;22.40;93.00
13835;DHT22;6988;52.614;13.500;2022-09-03T13:36:26;22.30;92.40
13835;DHT22;6988;52.614;13.500;2022-09-03T13:41:33;22.40;92.50
13835;DHT22;6988;52.614;13.500;2022-09-03T13:46:38;22.50;93.00
13835;DHT22;6988;52.614;13.500;2022-09-03T13:51:41;22.90;92.00
13835;DHT22;6988;52.614;13.500;2022-09-03T13:56:49;22.90;91.70
13835;DHT22;6988;52.614;13.500;2022-09-03T14:02:05;22.70;92.00
13835;DHT22;6988;52.614;13.500;2022-09-03T14:07:08;23.10;91.20
13835;DHT22;6988;52.614;13.500;2022-09-03T14:12:13;23.30;91.30
13835;DHT22;6988;52.614;13.500;2022-09-03T14:17:14;23.30;91.60
13835;DHT22;6988;52.614;13.500;2022-09-03T14:22:21;23.50;90.90
13835;DHT22;6988;52.614;13.500;2022-09-03T14:27:23;23.30;91.00
13835;DHT22;6988;52.614;13.500;2022-09-03T14:32:27;23.00;91.20
13835;DHT22;6988;52.614;13.500;2022-09-03T14:37:35;22.60;91.40
13835;DHT22;6988;52.614;13.500;2022-09-03T14:42:56;22.30;91.80
13835;DHT22;6988;52.614;13.500;2022-09-03T14:48:14;22.10;92.00
13835;DHT22;6988;52.614;13.500;2022-09-03T14:53:46;22.40;92.30
13835;DHT22;6988;52.614;13.500;2022-09-03T14:59:27;22.70;91.60
13835;DHT22;6988;52.614;13.500;2022-09-03T15:04:44;22.30;91.20
13835;DHT22;6988;52.614;13.500;2022-09-03T15:09:53;22.00;91.70
13835;DHT22;6988;52.614;13.500;2022-09-03T15:14:54;21.80;92.00
13835;DHT22;6988;52.614;13.500;2022-09-03T15:20:00;22.00;92.50
13835;DHT22;6988;52.614;13.500;2022-09-03T15:25:07;22.20;91.70
13835;DHT22;6988;52.614;13.500;2022-09-03T15:30:12;22.00;91.90
13835;DHT22;6988;52.614;13.500;2022-09-03T15:35:15;21.80;92.00
13835;DHT22;6988;52.614;13.500;2022-09-03T15:40:27;21.60;92.50
13835;DHT22;6988;52.614;13.500;2022-09-03T15:45:31;21.40;92.60
13835;DHT22;6988;52.614;13.500;2022-09-03T15:50:34;21.50;93.20
13835;DHT22;6988;52.614;13.500;2022-09-03T15:55:32;21.40;93.70
13835;DHT22;6988;52.614;13.500;2022-09-03T16:00:29;21.40;93.00
13835;DHT22;6988;52.614;13.500;2022-09-03T16:05:34;21.50;93.60
13835;DHT22;6988;52.614;13.500;2022-09-03T16:10:41;21.40;93.30
13835;DHT22;6988;52.614;13.500;2022-09-03T16:15:44;21.40;93.30
13835;DHT22;6988;52.614;13.500;2022-09-03T16:20:42;21.40;92.70
13835;DHT22;6988;52.614;13.500;2022-09-03T16:25:47;21.20;93.20
13835;DHT22;6988;52.614;13.500;2022-09-03T16:30:51;21.20;93.40
13835;DHT22;6988;52.614;13.500;2022-09-03T16:36:00;21.20;93.20
13835;DHT22;6988;52.614;13.500;2022-09-03T16:41:12;21.20;92.90
13835;DHT22;6988;52.614;13.500;2022-09-03T16:46:21;21.10;93.90
13835;DHT22;6988;52.614;13.500;2022-09-03T16:51:24;21.10;93.80
13835;DHT22;6988;52.614;13.500;2022-09-03T16:56:38;20.90;93.80
13835;DHT22;6988;52.614;13.500;2022-09-03T17:01:47;20.80;94.30
13835;DHT22;6988;52.614;13.500;2022-09-03T17:07:07;20.70;94.90
13835;DHT22;6988;52.614;13.500;2022-09-03T17:12:19;20.50;95.30
13835;DHT22;6988;52.614;13.500;2022-09-03T17:17:32;20.40;95.80
13835;DHT22;6988;52.614;13.500;2022-09-03T17:22:44;20.30;96.10
13835;DHT22;6988;52.614;13.500;2022-09-03T17:27:49;20.20;95.90
13835;DHT22;6988;52.614;13.500;2022-09-03T17:38:36;20.00;97.00
13835;DHT22;6988;52.614;13.500;2022-09-03T17:43:44;19.80;97.80
13835;DHT22;6988;52.614;13.500;2022-09-03T17:48:53;19.70;97.90
13835;DHT22;6988;52.614;13.500;2022-09-03T17:53:55;19.70;98.30
13835;DHT22;6988;52.614;13.500;2022-09-03T17:59:02;19.40;98.90
13835;DHT22;6988;52.614;13.500;2022-09-03T18:04:01;19.30;99.40
13835;DHT22;6988;52.614;13.500;2022-09-03T18:09:18;19.20;99.60
13835;DHT22;6988;52.614;13.500;2022-09-03T18:14:22;19.00;99.90
13835;DHT22;6988;52.614;13.500;2022-09-03T18:19:29;18.80;99.90
13835;DHT22;6988;52.614;13.500;2022-09-03T18:24:48;18.50;99.90
13835;DHT22;6988;52.614;13.500;2022-09-03T18:30:06;18.30;99.90
13835;DHT22;6988;52.614;13.500;2022-09-03T18:35:17;18.20;99.90
13835;DHT22;6988;52.614;13.500;2022-09-03T18:40:32;18.20;99.90
13835;DHT22;6988;52.614;13.500;2022-09-03T18:45:50;18.10;99.90
13835;DHT22;6988;52.614;13.500;2022-09-03T18:51:12;18.00;99.90
13835;DHT22;6988;52.614;13.500;2022-09-03T18:56:36;17.90;99.90
13835;DHT22;6988;52.614;13.500;2022-09-03T19:01:52;17.90;99.90
13835;DHT22;6988;52.614;13.500;2022-09-03T19:07:07;17.80;99.90
13835;DHT22;6988;52.614;13.500;2022-09-03T19:12:31;17.70;99.90
13835;DHT22;6988;52.614;13.500;2022-09-03T19:18:06;17.70;99.90
13835;DHT22;6988;52.614;13.500;2022-09-03T19:23:18;17.60;99.90
13835;DHT22;6988;52.614;13.500;2022-09-03T19:28:30;17.60;99.90
13835;DHT22;6988;52.614;13.500;2022-09-03T19:33:51;17.50;99.90
13835;DHT22;6988;52.614;13.500;2022-09-03T19:39:28;17.60;99.90
13835;DHT22;6988;52.614;13.500;2022-09-03T19:44:58;17.60;99.90
13835;DHT22;6988;52.614;13.500;2022-09-03T19:50:17;17.60;99.90
13835;DHT22;6988;52.614;13.500;2022-09-03T19:55:33;17.50;99.90
13835;DHT22;6988;52.614;13.500;2022-09-03T20:00:45;17.70;99.90
13835;DHT22;6988;52.614;13.500;2022-09-03T20:05:55;17.70;99.90
13835;DHT22;6988;52.614;13.500;2022-09-03T20:11:05;17.70;99.90
13835;DHT22;6988;52.614;13.500;2022-09-03T20:16:13;17.60;99.90
13835;DHT22;6988;52.614;13.500;2022-09-03T20:21:18;17.60;99.90
13835;DHT22;6988;52.614;13.500;2022-09-03T20:26:26;17.50;99.90
13835;DHT22;6988;52.614;13.500;2022-09-03T20:31:40;17.40;99.90
13835;DHT22;6988;52.614;13.500;2022-09-03T20:36:44;17.40;99.90
13835;DHT22;6988;52.614;13.500;2022-09-03T20:41:48;17.50;99.90
13835;DHT22;6988;52.614;13.500;2022-09-03T20:46:57;17.40;99.90
13835;DHT22;6988;52.614;13.500;2022-09-03T20:52:05;17.40;99.90
13835;DHT22;6988;52.614;13.500;2022-09-03T20:57:19;17.40;99.90
13835;DHT22;6988;52.614;13.500;2022-09-03T21:02:25;17.40;99.90
13835;DHT22;6988;52.614;13.500;2022-09-03T21:07:32;17.40;99.90
13835;DHT22;6988;52.614;13.500;2022-09-03T21:12:43;17.30;99.90
13835;DHT22;6988;52.614;13.500;2022-09-03T21:17:54;17.20;99.90
13835;DHT22;6988;52.614;13.500;2022-09-03T21:23:03;17.20;99.90
13835;DHT22;6988;52.614;13.500;2022-09-03T21:28:05;17.10;99.90
13835;DHT22;6988;52.614;13.500;2022-09-03T21:33:10;17.20;99.90
13835;DHT22;6988;52.614;13.500;2022-09-03T21:38:10;17.20;99.90
13835;DHT22;6988;52.614;13.500;2022-09-03T21:43:11;17.30;99.90
13835;DHT22;6988;52.614;13.500;2022-09-03T22:04:15;17.20;99.90
13835;DHT22;6988;52.614;13.500;2022-09-03T22:09:12;17.20;99.90
13835;DHT22;6988;52.614;13.500;2022-09-03T22:14:12;17.30;99.90
13835;DHT22;6988;52.614;13.500;2022-09-03T22:19:06;17.30;99.90
13835;DHT22;6988;52.614;13.500;2022-09-03T22:24:07;17.30;99.90
13835;DHT22;6988;52.614;13.500;2022-09-03T22:29:13;17.30;99.90
13835;DHT22;6988;52.614;13.500;2022-09-03T22:34:29;17.40;99.90
13835;DHT22;6988;52.614;13.500;2022-09-03T22:39:37;17.30;99.90
13835;DHT22;6988;52.614;13.500;2022-09-03T22:45:04;17.20;99.90
13835;DHT22;6988;52.614;13.500;2022-09-03T22:50:18;17.20;99.90
13835;DHT22;6988;52.614;13.500;2022-09-03T22:55:16;17.20;99.90
13835;DHT22;6988;52.614;13.500;2022-09-03T23:00:13;17.20;99.90
13835;DHT22;6988;52.614;13.500;2022-09-03T23:05:07;17.20;99.90
13835;DHT22;6988;52.614;13.500;2022-09-03T23:10:20;17.10;99.90
13835;DHT22;6988;52.614;13.500;2022-09-03T23:15:18;17.10;99.90
13835;DHT22;6988;52.614;13.500;2022-09-03T23:20:23;16.90;99.90
13835;DHT22;6988;52.614;13.500;2022-09-03T23:25:20;16.90;99.90
13835;DHT22;6988;52.614;13.500;2022-09-03T23:30:15;16.90;99.90
13835;DHT22;6988;52.614;13.500;2022-09-03T23:35:11;16.80;99.90
13835;DHT22;6988;52.614;13.500;2022-09-03T23:40:27;16.70;99.90
13835;DHT22;6988;52.614;13.500;2022-09-03T23:45:32;16.60;99.90
13835;DHT22;6988;52.614;13.500;2022-09-03T23:50:36;16.50;99.90
13835;DHT22;6988;52.614;13.500;2022-09-03T23:55:44;16.60;99.90
